Página principal
METAR-TAF:

METAR-TAF

Aeroportos :

Grand Turca, Ilhas Turcas e Caicos

latitude: 21-26-40N, longitude: 071-08-32W, altura: 4 m

Observação actual do tempo

O boletim foi feito há 1 hora e 28 minutos, às 23:00 UTC
Vento 13 kt de nordeste
Temperatura 26°C
Humidade 70%
Pressão 1017 hPa
Visibilidade 10 km ou mais
Nuvens dispersasa uma altura de 1200 ft, Cumulus congestus.
Nuvens dispersasa uma altura de 4000 ft

METAR: MBGT 022300Z 04013KT 9999 SCT012TCU SCT040 26/20 Q1017

Hora: 19:28 (00:28 UTC)

Previsão

O boletim foi feito há 1 hora e 23 minutos, às 23:05 UTC
Previsão válida de 03 às 00 UTC a 03 às 24 UTC
Vento 14 kt de es-nordeste com rajadas de 24 kt
Visibilidade 10 km ou mais
Nuvens dispersasa uma altura de 1800 ft
Nuvens dispersasa uma altura de 5000 ft

TAF: MBGT 022305Z 0300/0324 07014G24KT 9999 SCT018 SCT050

Observações e previsões do tempo de mais de 4000 aeroportos (mensagens METAR e TAF).

As estações disponíveis são os pontos amarelos e vermelhos sobre o mapa.

Mova o rato sobre o mapa para ver o nome da estação.

Depois clique no ponto para visualizar as observações e previsões meteorológicas.

Para alterar o mapa : clique nos botões verdes com uma cruz preta para aumentar o zoom; no botão verde com uma pitada de zoom; ou nas setas verdes para mapas adjacentes.


METAR-TAF: